Time;durP1;ratioP1;P1;durP2;ratioP2;P2;SDS_P1;SDS_P2;PMS_P1;PMS_P2;Temp;Humidity;BMP_temperature;BMP_pressure;BME280_temperature;BME280_humidity;BME280_pressure;Samples;Min_cycle;Max_cycle;Signal;HPM_P1;HPM_P2
2023/01/23 00:02:26;;;;;;;76.03;17.67;;;;;;;;;;5073611;28;20719;-68
2023/01/23 00:04:53;;;;;;;76.68;17.33;;;;;;;;;;5073649;28;20208;-68
2023/01/23 00:07:22;;;;;;;73.97;16.40;;;;;;;;;;5073432;28;20205;-68
2023/01/23 00:09:49;;;;;;;75.93;17.30;;;;;;;;;;5072559;28;20208;-67
2023/01/23 00:12:16;;;;;;;78.20;18.95;;;;;;;;;;5073098;28;20212;-67
2023/01/23 00:14:43;;;;;;;79.10;17.95;;;;;;;;;;5073385;28;20206;-67
2023/01/23 00:17:10;;;;;;;75.15;16.33;;;;;;;;;;5073413;28;20586;-68
2023/01/23 00:19:37;;;;;;;76.07;18.00;;;;;;;;;;5072409;28;20239;-68
2023/01/23 00:22:04;;;;;;;74.38;16.45;;;;;;;;;;5072957;28;20212;-68
2023/01/23 00:24:33;;;;;;;74.60;15.18;;;;;;;;;;5073139;28;20223;-67
2023/01/23 00:27:00;;;;;;;72.80;15.98;;;;;;;;;;5072661;28;20580;-68
2023/01/23 00:29:27;;;;;;;78.75;17.63;;;;;;;;;;5072363;28;20205;-68
2023/01/23 00:31:54;;;;;;;77.75;17.05;;;;;;;;;;5072801;28;20206;-67
2023/01/23 00:34:21;;;;;;;77.47;17.45;;;;;;;;;;5072813;28;20249;-68
2023/01/23 00:36:48;;;;;;;74.55;17.15;;;;;;;;;;5073198;28;20205;-68
2023/01/23 00:39:17;;;;;;;75.30;17.02;;;;;;;;;;5071856;28;20222;-68
2023/01/23 00:41:46;;;;;;;79.78;18.60;;;;;;;;;;5072634;28;20234;-67
2023/01/23 00:44:13;;;;;;;74.95;15.88;;;;;;;;;;5072443;28;20229;-68
2023/01/23 00:46:40;;;;;;;75.45;17.58;;;;;;;;;;5072537;28;20203;-68
2023/01/23 00:49:07;;;;;;;77.35;18.05;;;;;;;;;;5071863;28;20208;-68
2023/01/23 00:51:35;;;;;;;76.38;17.70;;;;;;;;;;5072356;28;20694;-68
2023/01/23 00:54:02;;;;;;;78.18;16.83;;;;;;;;;;5072136;28;20227;-68
2023/01/23 00:56:29;;;;;;;74.55;17.10;;;;;;;;;;5072549;28;20214;-68
2023/01/23 00:58:58;;;;;;;76.50;18.00;;;;;;;;;;5071705;28;20230;-67
2023/01/23 01:01:26;;;;;;;76.72;16.00;;;;;;;;;;5072540;28;20216;-68
2023/01/23 01:03:53;;;;;;;75.38;16.70;;;;;;;;;;5072195;28;20230;-68
2023/01/23 01:06:21;;;;;;;76.18;16.98;;;;;;;;;;5072136;28;20214;-68
2023/01/23 01:08:48;;;;;;;75.45;17.00;;;;;;;;;;5071322;28;20210;-68
2023/01/23 01:11:15;;;;;;;73.78;15.80;;;;;;;;;;5072269;28;20218;-68
2023/01/23 01:13:43;;;;;;;74.05;15.25;;;;;;;;;;5072247;28;20601;-69
2023/01/23 01:16:11;;;;;;;73.72;15.38;;;;;;;;;;5072201;28;20217;-68
2023/01/23 01:18:39;;;;;;;76.40;16.42;;;;;;;;;;5071182;28;20639;-67
2023/01/23 01:21:07;;;;;;;72.60;14.98;;;;;;;;;;5072100;28;20209;-68
2023/01/23 01:23:34;;;;;;;78.40;15.63;;;;;;;;;;5072010;28;20633;-68
2023/01/23 01:26:01;;;;;;;79.45;17.63;;;;;;;;;;5072026;28;20209;-68
2023/01/23 01:28:30;;;;;;;75.60;16.85;;;;;;;;;;5071713;28;20207;-67
2023/01/23 01:30:57;;;;;;;79.88;17.75;;;;;;;;;;5071614;28;20745;-68
2023/01/23 01:33:27;;;;;;;73.80;16.13;;;;;;;;;;5071793;28;20231;-68
2023/01/23 01:35:55;;;;;;;74.70;16.30;;;;;;;;;;5071879;28;20692;-68
2023/01/23 01:38:22;;;;;;;76.18;17.50;;;;;;;;;;5071790;28;20207;-68
2023/01/23 01:40:50;;;;;;;74.60;16.00;;;;;;;;;;5070983;28;20701;-68
2023/01/23 01:43:19;;;;;;;77.32;16.35;;;;;;;;;;5071795;28;20232;-68
2023/01/23 01:46:01;;;;;;;76.22;16.73;;;;;;;;;;5071855;28;20206;-68
2023/01/23 01:48:31;;;;;;;74.82;16.63;;;;;;;;;;5071879;28;20214;-68
2023/01/23 01:50:59;;;;;;;73.03;14.70;;;;;;;;;;5071780;28;20207;-68
2023/01/23 01:53:27;;;;;;;75.68;16.58;;;;;;;;;;5071673;28;20229;-68
2023/01/23 01:55:55;;;;;;;75.05;15.82;;;;;;;;;;5071743;28;20201;-68
2023/01/23 01:58:22;;;;;;;70.32;14.13;;;;;;;;;;5071506;28;20212;-67
2023/01/23 02:00:49;;;;;;;72.82;14.80;;;;;;;;;;5070639;28;20716;-68
2023/01/23 02:03:18;;;;;;;73.72;16.00;;;;;;;;;;5071694;28;20231;-68
2023/01/23 02:05:48;;;;;;;73.47;15.88;;;;;;;;;;5073924;28;20251;-68
2023/01/23 02:08:19;;;;;;;73.85;14.23;;;;;;;;;;5075633;28;20212;-68
2023/01/23 02:10:46;;;;;;;72.82;15.32;;;;;;;;;;5075142;28;20239;-67
2023/01/23 02:13:24;;;;;;;71.07;15.23;;;;;;;;;;5075291;28;20236;-68
2023/01/23 02:15:52;;;;;;;73.13;15.48;;;;;;;;;;5075661;28;20206;-68
2023/01/23 02:18:20;;;;;;;74.25;15.75;;;;;;;;;;5075496;28;20589;-68
2023/01/23 02:20:49;;;;;;;74.85;14.57;;;;;;;;;;5074673;28;20659;-68
2023/01/23 02:23:20;;;;;;;74.45;16.40;;;;;;;;;;5075193;28;20229;-67
2023/01/23 02:25:55;;;;;;;73.10;14.38;;;;;;;;;;5075145;28;20218;-68
2023/01/23 02:28:22;;;;;;;72.13;14.60;;;;;;;;;;5075323;28;20216;-68
2023/01/23 02:30:50;;;;;;;75.80;15.95;;;;;;;;;;5074937;28;20227;-68
2023/01/23 02:33:35;;;;;;;73.93;15.25;;;;;;;;;;5075090;28;20227;-68
2023/01/23 02:36:04;;;;;;;74.55;14.50;;;;;;;;;;5075133;28;20253;-68
2023/01/23 02:38:33;;;;;;;75.20;14.68;;;;;;;;;;5074584;28;20210;-68
2023/01/23 02:41:02;;;;;;;73.40;14.95;;;;;;;;;;5075037;28;20709;-68
2023/01/23 02:43:33;;;;;;;74.88;15.85;;;;;;;;;;5071186;28;20235;-68
2023/01/23 02:46:02;;;;;;;75.70;15.40;;;;;;;;;;5074811;28;20211;-68
2023/01/23 02:48:29;;;;;;;75.75;16.08;;;;;;;;;;5074791;28;20228;-67
2023/01/23 02:50:56;;;;;;;75.68;16.55;;;;;;;;;;5074787;28;20203;-68
2023/01/23 02:53:24;;;;;;;74.90;16.20;;;;;;;;;;5074697;28;20234;-67
2023/01/23 02:55:51;;;;;;;75.13;15.15;;;;;;;;;;5074752;28;20259;-68
2023/01/23 03:01:05;;;;;;;74.43;15.75;;;;;;;;;;5074855;28;20811;-68
2023/01/23 03:03:32;;;;;;;77.32;17.20;;;;;;;;;;5074660;28;20748;-68
2023/01/23 03:06:02;;;;;;;73.97;15.75;;;;;;;;;;5074788;28;20207;-68
2023/01/23 03:08:32;;;;;;;73.63;16.10;;;;;;;;;;5074166;28;20213;-68
2023/01/23 03:10:59;;;;;;;73.55;14.55;;;;;;;;;;5074426;28;20215;-68
2023/01/23 03:13:28;;;;;;;75.93;15.57;;;;;;;;;;5074302;28;20719;-68
2023/01/23 03:15:56;;;;;;;76.07;15.55;;;;;;;;;;5073728;28;20211;-68
2023/01/23 03:18:23;;;;;;;74.43;15.32;;;;;;;;;;5073573;28;20307;-68
2023/01/23 03:20:50;;;;;;;76.85;15.23;;;;;;;;;;5073549;28;20235;-69
2023/01/23 03:23:17;;;;;;;77.47;16.48;;;;;;;;;;5074206;28;20223;-68
2023/01/23 03:25:44;;;;;;;73.32;15.95;;;;;;;;;;5074076;28;20214;-68
2023/01/23 03:30:12;;;;;;;74.57;16.05;;;;;;;;;;5074448;28;20204;-68
2023/01/23 03:30:59;;;;;;;73.82;15.25;;;;;;;;;;5074055;28;20254;-68
2023/01/23 03:33:26;;;;;;;74.57;14.90;;;;;;;;;;5073986;28;20256;-68
2023/01/23 03:35:53;;;;;;;74.20;15.23;;;;;;;;;;5073965;28;20203;-69
2023/01/23 03:38:20;;;;;;;76.15;17.40;;;;;;;;;;5073780;28;20216;-69
2023/01/23 03:43:35;;;;;;;75.43;15.95;;;;;;;;;;5073886;28;20241;-68
2023/01/23 03:46:03;;;;;;;75.43;16.08;;;;;;;;;;5074192;28;20669;-69
2023/01/23 03:48:30;;;;;;;75.25;16.38;;;;;;;;;;5073458;28;20211;-68
2023/01/23 03:50:57;;;;;;;76.57;16.30;;;;;;;;;;5073404;28;20212;-68
2023/01/23 03:53:24;;;;;;;74.57;15.70;;;;;;;;;;5073759;28;20596;-69
2023/01/23 03:55:52;;;;;;;75.10;15.75;;;;;;;;;;5073872;28;20269;-68
2023/01/23 03:58:19;;;;;;;76.28;15.65;;;;;;;;;;5073499;28;20215;-69
2023/01/23 04:00:46;;;;;;;76.88;16.55;;;;;;;;;;5072861;28;20228;-68
2023/01/23 04:03:14;;;;;;;74.57;16.45;;;;;;;;;;5073247;28;20222;-69
2023/01/23 04:05:41;;;;;;;72.63;14.60;;;;;;;;;;5073409;28;20212;-68
2023/01/23 04:08:08;;;;;;;75.90;15.98;;;;;;;;;;5073532;28;20225;-68
2023/01/23 04:10:36;;;;;;;78.05;17.20;;;;;;;;;;5072803;28;20199;-68
2023/01/23 04:13:03;;;;;;;76.57;16.67;;;;;;;;;;5073128;28;20284;-69
2023/01/23 04:15:32;;;;;;;75.05;16.35;;;;;;;;;;5073189;28;20209;-69
2023/01/23 04:17:59;;;;;;;75.78;16.60;;;;;;;;;;5073315;28;20209;-68
2023/01/23 04:20:27;;;;;;;76.72;16.77;;;;;;;;;;5072326;28;20739;-68
2023/01/23 04:22:55;;;;;;;74.28;15.75;;;;;;;;;;5073153;28;20228;-69
2023/01/23 04:25:22;;;;;;;77.53;14.82;;;;;;;;;;5072999;28;20214;-68
2023/01/23 04:27:49;;;;;;;76.53;16.45;;;;;;;;;;5072684;28;20217;-69
2023/01/23 04:30:17;;;;;;;77.97;16.58;;;;;;;;;;5072067;28;20210;-68
2023/01/23 04:32:44;;;;;;;75.30;16.08;;;;;;;;;;5072941;28;20229;-68
2023/01/23 04:35:11;;;;;;;74.55;16.45;;;;;;;;;;5072902;28;20209;-68
2023/01/23 04:37:39;;;;;;;78.78;17.30;;;;;;;;;;5072756;28;20695;-68
2023/01/23 04:40:07;;;;;;;78.88;17.73;;;;;;;;;;5071861;28;20234;-68
2023/01/23 04:42:34;;;;;;;75.93;16.90;;;;;;;;;;5072676;28;20227;-69
2023/01/23 04:45:01;;;;;;;77.63;18.65;;;;;;;;;;5072637;28;20597;-69
2023/01/23 04:47:28;;;;;;;77.75;16.25;;;;;;;;;;5072801;28;20268;-69
2023/01/23 04:49:55;;;;;;;78.13;16.27;;;;;;;;;;5072297;28;20206;-69
2023/01/23 04:52:22;;;;;;;75.95;15.77;;;;;;;;;;5072277;28;20249;-68
2023/01/23 04:54:51;;;;;;;77.70;17.30;;;;;;;;;;5072465;28;20215;-69
2023/01/23 04:57:18;;;;;;;76.55;15.80;;;;;;;;;;5072401;28;20208;-68
2023/01/23 04:59:45;;;;;;;75.15;16.45;;;;;;;;;;5071659;28;20234;-68
2023/01/23 05:02:12;;;;;;;77.75;16.80;;;;;;;;;;5072347;28;20207;-68
2023/01/23 05:04:39;;;;;;;76.65;17.50;;;;;;;;;;5072321;28;20213;-69
2023/01/23 05:07:08;;;;;;;77.75;18.25;;;;;;;;;;5072366;28;20207;-68
2023/01/23 05:09:35;;;;;;;76.68;15.85;;;;;;;;;;5071387;28;20207;-69
2023/01/23 05:12:03;;;;;;;81.00;17.65;;;;;;;;;;5072415;28;20212;-69
2023/01/23 05:14:30;;;;;;;78.95;17.45;;;;;;;;;;5072315;28;20213;-69
2023/01/23 05:16:57;;;;;;;75.90;16.20;;;;;;;;;;5072185;28;20227;-69
2023/01/23 05:19:25;;;;;;;75.63;16.08;;;;;;;;;;5071515;28;20206;-69
2023/01/23 05:21:52;;;;;;;79.70;18.15;;;;;;;;;;5071999;28;20230;-68
2023/01/23 05:24:19;;;;;;;80.20;17.67;;;;;;;;;;5071737;28;20234;-69
2023/01/23 05:26:46;;;;;;;78.03;16.90;;;;;;;;;;5071952;28;20695;-68
2023/01/23 05:29:14;;;;;;;75.80;16.35;;;;;;;;;;5071306;28;20207;-68
2023/01/23 05:31:41;;;;;;;75.03;16.63;;;;;;;;;;5071840;28;20701;-68
2023/01/23 05:34:08;;;;;;;78.15;17.38;;;;;;;;;;5071908;28;20612;-69
2023/01/23 05:36:35;;;;;;;81.85;20.05;;;;;;;;;;5071867;28;20226;-69
2023/01/23 05:39:03;;;;;;;80.80;19.10;;;;;;;;;;5070391;28;20208;-69
2023/01/23 05:41:30;;;;;;;78.22;18.52;;;;;;;;;;5071682;28;20258;-68
2023/01/23 05:43:57;;;;;;;83.40;18.42;;;;;;;;;;5071829;28;20226;-69
2023/01/23 05:46:25;;;;;;;80.03;17.02;;;;;;;;;;5071840;28;20212;-68
2023/01/23 05:48:52;;;;;;;80.00;18.40;;;;;;;;;;5071003;28;20218;-68
2023/01/23 05:51:19;;;;;;;83.07;19.35;;;;;;;;;;5071587;28;20633;-68
2023/01/23 05:53:47;;;;;;;79.82;18.55;;;;;;;;;;5071498;28;20223;-69
2023/01/23 05:56:14;;;;;;;80.60;17.83;;;;;;;;;;5071869;28;20578;-69
2023/01/23 05:58:41;;;;;;;79.28;18.05;;;;;;;;;;5070773;28;20224;-69
2023/01/23 06:01:08;;;;;;;78.30;16.67;;;;;;;;;;5071697;28;20228;-69
2023/01/23 06:03:36;;;;;;;77.13;17.73;;;;;;;;;;5071529;28;20228;-69
2023/01/23 06:06:04;;;;;;;76.05;16.13;;;;;;;;;;5071628;28;20209;-68
2023/01/23 06:08:31;;;;;;;79.10;16.90;;;;;;;;;;5071579;28;20205;-69
2023/01/23 06:10:58;;;;;;;81.90;17.73;;;;;;;;;;5071931;28;20565;-69
2023/01/23 06:13:25;;;;;;;85.88;18.58;;;;;;;;;;5071451;28;20232;-68
2023/01/23 06:15:52;;;;;;;81.88;19.60;;;;;;;;;;5071654;28;20563;-68
2023/01/23 06:18:20;;;;;;;79.85;18.00;;;;;;;;;;5071370;28;20202;-69
2023/01/23 06:20:48;;;;;;;84.80;19.27;;;;;;;;;;5070617;28;20233;-68
2023/01/23 06:23:16;;;;;;;89.45;22.38;;;;;;;;;;5071530;28;20726;-69
2023/01/23 06:25:43;;;;;;;87.85;22.67;;;;;;;;;;5071449;28;20605;-68
2023/01/23 06:28:10;;;;;;;88.82;23.25;;;;;;;;;;5071423;28;20205;-68
2023/01/23 06:30:37;;;;;;;85.13;20.85;;;;;;;;;;5070623;28;20208;-68
2023/01/23 06:33:04;;;;;;;87.35;21.90;;;;;;;;;;5071131;28;20223;-68
2023/01/23 06:35:32;;;;;;;89.47;22.10;;;;;;;;;;5071254;28;20206;-69
2023/01/23 06:38:01;;;;;;;90.30;24.00;;;;;;;;;;5071432;28;20324;-68
2023/01/23 06:40:28;;;;;;;86.53;22.48;;;;;;;;;;5070594;28;20231;-69
2023/01/23 06:42:56;;;;;;;91.82;23.20;;;;;;;;;;5071287;28;20227;-68
2023/01/23 06:45:23;;;;;;;92.65;21.73;;;;;;;;;;5071139;28;20286;-69
2023/01/23 06:47:52;;;;;;;104.22;30.20;;;;;;;;;;5071009;28;20230;-69
2023/01/23 06:50:19;;;;;;;101.97;28.10;;;;;;;;;;5070604;28;20263;-69
2023/01/23 06:52:46;;;;;;;96.97;28.35;;;;;;;;;;5074668;28;20234;-69
2023/01/23 06:55:14;;;;;;;103.15;29.13;;;;;;;;;;5075025;28;20234;-69
2023/01/23 06:57:42;;;;;;;101.60;28.25;;;;;;;;;;5074675;28;20214;-68
2023/01/23 07:00:10;;;;;;;90.28;22.25;;;;;;;;;;5073697;28;20671;-69
2023/01/23 07:02:38;;;;;;;85.82;21.00;;;;;;;;;;5074509;28;20231;-68
2023/01/23 07:05:06;;;;;;;87.53;20.05;;;;;;;;;;5074792;28;20211;-69
2023/01/23 07:07:33;;;;;;;83.70;20.23;;;;;;;;;;5074672;28;20208;-68
2023/01/23 07:10:00;;;;;;;82.95;18.60;;;;;;;;;;5073913;28;20214;-67
2023/01/23 07:12:28;;;;;;;83.57;19.50;;;;;;;;;;5074479;28;20295;-69
2023/01/23 07:14:55;;;;;;;80.68;17.65;;;;;;;;;;5074231;28;20213;-69
2023/01/23 07:17:22;;;;;;;80.80;19.38;;;;;;;;;;5074538;28;20235;-69
2023/01/23 07:19:50;;;;;;;79.18;17.50;;;;;;;;;;5073708;28;20211;-69
2023/01/23 07:22:18;;;;;;;82.50;18.90;;;;;;;;;;5074321;28;20227;-68
2023/01/23 07:24:46;;;;;;;79.78;18.48;;;;;;;;;;5074081;28;20220;-69
2023/01/23 07:27:14;;;;;;;84.95;21.45;;;;;;;;;;5074055;28;20203;-69
2023/01/23 07:29:42;;;;;;;86.47;21.73;;;;;;;;;;5073318;28;20206;-68
2023/01/23 07:32:09;;;;;;;81.22;18.70;;;;;;;;;;5074117;28;20204;-69
2023/01/23 07:34:37;;;;;;;83.85;20.73;;;;;;;;;;5073980;28;20214;-68
2023/01/23 07:37:04;;;;;;;81.28;18.20;;;;;;;;;;5074150;28;20204;-69
2023/01/23 07:39:32;;;;;;;82.47;16.77;;;;;;;;;;5073192;28;20215;-67
2023/01/23 07:41:59;;;;;;;81.97;19.83;;;;;;;;;;5073698;28;20716;-68
2023/01/23 07:44:26;;;;;;;78.60;17.38;;;;;;;;;;5074126;28;20224;-68
2023/01/23 07:46:54;;;;;;;79.68;17.55;;;;;;;;;;5074080;28;20208;-68
2023/01/23 07:49:21;;;;;;;81.53;18.05;;;;;;;;;;5073186;28;20586;-68
2023/01/23 07:51:48;;;;;;;79.18;16.40;;;;;;;;;;5074015;28;20203;-69
2023/01/23 07:54:16;;;;;;;81.28;18.83;;;;;;;;;;5073519;28;20225;-68
2023/01/23 07:56:43;;;;;;;82.10;17.90;;;;;;;;;;5073497;28;20216;-69
2023/01/23 07:59:10;;;;;;;84.78;19.13;;;;;;;;;;5073006;28;20211;-69
2023/01/23 08:01:37;;;;;;;86.28;18.85;;;;;;;;;;5073533;28;20234;-69
2023/01/23 08:04:06;;;;;;;82.75;18.38;;;;;;;;;;5072689;28;20232;-69
2023/01/23 08:06:33;;;;;;;81.00;19.02;;;;;;;;;;5073558;28;20219;-69
2023/01/23 08:09:00;;;;;;;80.15;18.23;;;;;;;;;;5072566;28;20210;-69
2023/01/23 08:11:27;;;;;;;85.80;18.42;;;;;;;;;;5073734;28;20204;-69
2023/01/23 08:13:54;;;;;;;87.03;19.85;;;;;;;;;;5073644;28;20232;-69
2023/01/23 08:16:21;;;;;;;83.88;18.20;;;;;;;;;;5073374;28;20201;-69
2023/01/23 08:18:49;;;;;;;81.93;17.42;;;;;;;;;;5072534;28;20238;-69
2023/01/23 08:21:17;;;;;;;83.35;17.73;;;;;;;;;;5073025;28;20221;-69
2023/01/23 08:23:45;;;;;;;84.70;17.25;;;;;;;;;;5072808;28;20229;-69
2023/01/23 08:26:14;;;;;;;83.40;17.55;;;;;;;;;;5073189;28;20314;-69
2023/01/23 08:28:41;;;;;;;79.80;17.30;;;;;;;;;;5072349;28;20275;-69
2023/01/23 08:31:09;;;;;;;82.63;18.77;;;;;;;;;;5072936;28;20203;-69
2023/01/23 08:33:37;;;;;;;80.05;18.17;;;;;;;;;;5072931;28;20236;-69
2023/01/23 08:36:05;;;;;;;85.90;18.90;;;;;;;;;;5072843;28;20217;-69
2023/01/23 08:38:33;;;;;;;83.85;17.25;;;;;;;;;;5072535;28;20204;-69
2023/01/23 08:41:02;;;;;;;78.78;16.83;;;;;;;;;;5072636;28;20318;-69
2023/01/23 08:43:30;;;;;;;80.45;17.38;;;;;;;;;;5072724;28;20251;-70
2023/01/23 08:45:58;;;;;;;76.85;16.85;;;;;;;;;;5072780;28;20587;-69
2023/01/23 08:48:26;;;;;;;78.57;17.40;;;;;;;;;;5072420;28;20208;-70
2023/01/23 08:50:58;;;;;;;78.63;17.55;;;;;;;;;;5071925;28;20211;-69
2023/01/23 08:53:25;;;;;;;81.38;17.17;;;;;;;;;;5072626;28;20235;-69
2023/01/23 08:55:54;;;;;;;84.95;21.17;;;;;;;;;;5072691;28;20788;-70
2023/01/23 08:58:21;;;;;;;80.60;17.15;;;;;;;;;;5072290;28;20208;-69
2023/01/23 09:00:48;;;;;;;77.03;16.15;;;;;;;;;;5071711;28;20235;-69
2023/01/23 09:03:15;;;;;;;75.80;15.90;;;;;;;;;;5072110;28;20281;-69
2023/01/23 09:05:42;;;;;;;75.65;15.57;;;;;;;;;;5072445;28;20211;-69
2023/01/23 09:08:10;;;;;;;78.13;17.08;;;;;;;;;;5072315;28;20201;-69
2023/01/23 09:10:37;;;;;;;76.47;16.40;;;;;;;;;;5071376;28;20213;-69
2023/01/23 09:13:05;;;;;;;73.43;14.95;;;;;;;;;;5072314;28;20234;-69
2023/01/23 09:15:32;;;;;;;72.75;13.77;;;;;;;;;;5072045;28;20230;-69
2023/01/23 09:17:59;;;;;;;75.78;15.35;;;;;;;;;;5072470;28;20208;-68
2023/01/23 09:20:27;;;;;;;70.72;12.25;;;;;;;;;;5071538;28;20211;-69
2023/01/23 09:22:55;;;;;;;74.53;13.70;;;;;;;;;;5072015;28;20232;-69
2023/01/23 09:25:22;;;;;;;72.00;11.75;;;;;;;;;;5071812;28;20424;-69
2023/01/23 09:27:49;;;;;;;72.80;13.55;;;;;;;;;;5071894;28;20218;-69
2023/01/23 09:30:18;;;;;;;72.38;12.10;;;;;;;;;;5071067;28;20588;-68
2023/01/23 09:32:45;;;;;;;67.57;10.93;;;;;;;;;;5072167;28;20251;-69
2023/01/23 09:35:12;;;;;;;71.40;12.23;;;;;;;;;;5072023;28;20211;-69
2023/01/23 09:40:24;;;;;;;67.93;11.25;;;;;;;;;;5063672;28;20208;-69
2023/01/23 09:42:52;;;;;;;69.20;12.00;;;;;;;;;;5071562;28;20712;-69
2023/01/23 09:45:22;;;;;;;69.63;12.73;;;;;;;;;;5071921;28;20218;-69
2023/01/23 09:47:51;;;;;;;68.43;11.02;;;;;;;;;;5071846;28;20212;-68
2023/01/23 09:50:20;;;;;;;68.78;11.85;;;;;;;;;;5070843;28;20208;-68
2023/01/23 09:52:53;;;;;;;72.65;16.58;;;;;;;;;;5071831;28;20334;-72
2023/01/23 09:55:23;;;;;;;75.18;16.40;;;;;;;;;;5073019;28;20247;-69
2023/01/23 09:57:53;;;;;;;71.00;12.60;;;;;;;;;;5071641;28;20211;-70
2023/01/23 10:00:24;;;;;;;71.00;12.80;;;;;;;;;;5071115;28;20244;-70
2023/01/23 10:02:52;;;;;;;75.45;13.65;;;;;;;;;;5071600;28;20234;-69
2023/01/23 10:05:21;;;;;;;146.65;79.78;;;;;;;;;;5071535;28;20638;-70
2023/01/23 10:08:03;;;;;;;75.07;16.63;;;;;;;;;;5071552;28;20296;-69
2023/01/23 10:10:38;;;;;;;72.15;16.50;;;;;;;;;;5071033;28;20212;-70
2023/01/23 10:13:08;;;;;;;70.60;13.80;;;;;;;;;;5071523;28;20573;-69
2023/01/23 10:15:42;;;;;;;72.80;13.75;;;;;;;;;;5071818;28;20576;-69
2023/01/23 10:18:16;;;;;;;72.30;14.00;;;;;;;;;;5071280;28;20208;-69
2023/01/23 10:20:57;;;;;;;70.35;12.38;;;;;;;;;;5070945;28;20218;-70
2023/01/23 10:23:40;;;;;;;72.20;14.43;;;;;;;;;;5071292;28;20708;-70
2023/01/23 10:26:13;;;;;;;75.07;17.70;;;;;;;;;;5072833;28;20254;-69
2023/01/23 10:28:41;;;;;;;72.63;13.43;;;;;;;;;;5074545;28;20205;-70
2023/01/23 10:31:12;;;;;;;69.70;13.30;;;;;;;;;;5075262;28;20208;-69
2023/01/23 10:33:42;;;;;;;71.55;13.40;;;;;;;;;;5075372;28;20236;-70
2023/01/23 10:36:17;;;;;;;74.32;13.95;;;;;;;;;;5075338;28;20582;-68
2023/01/23 10:38:48;;;;;;;70.95;12.77;;;;;;;;;;5074505;28;20208;-69
2023/01/23 10:41:18;;;;;;;69.05;13.00;;;;;;;;;;5075042;28;20213;-69
2023/01/23 10:43:47;;;;;;;73.68;12.90;;;;;;;;;;5075135;28;20260;-70
2023/01/23 10:46:17;;;;;;;70.95;12.75;;;;;;;;;;5074857;28;20213;-69
2023/01/23 10:48:45;;;;;;;73.90;15.30;;;;;;;;;;5074048;28;20205;-70
2023/01/23 10:51:31;;;;;;;71.15;13.77;;;;;;;;;;5074998;28;20209;-69
2023/01/23 10:54:05;;;;;;;72.32;12.15;;;;;;;;;;5075105;28;20282;-69
2023/01/23 10:56:32;;;;;;;69.30;12.43;;;;;;;;;;5075000;28;20230;-69
2023/01/23 10:59:01;;;;;;;71.80;12.80;;;;;;;;;;5074149;28;20205;-69
2023/01/23 11:01:30;;;;;;;72.93;13.20;;;;;;;;;;5074562;28;20681;-70
2023/01/23 11:03:57;;;;;;;68.78;12.55;;;;;;;;;;5074393;28;20225;-70
2023/01/23 11:06:25;;;;;;;70.95;12.18;;;;;;;;;;5074753;28;20201;-69
2023/01/23 11:08:55;;;;;;;71.90;13.55;;;;;;;;;;5073750;28;20717;-69
2023/01/23 11:11:24;;;;;;;73.93;15.00;;;;;;;;;;5074596;28;20335;-69
2023/01/23 11:13:52;;;;;;;71.32;12.50;;;;;;;;;;5074424;28;20268;-70
2023/01/23 11:16:21;;;;;;;69.05;12.75;;;;;;;;;;5074366;28;20227;-69
2023/01/23 11:18:53;;;;;;;72.00;12.70;;;;;;;;;;5074224;28;20205;-70
2023/01/23 11:21:24;;;;;;;74.38;12.80;;;;;;;;;;5074498;28;20271;-70
2023/01/23 11:24:07;;;;;;;71.18;12.27;;;;;;;;;;5073927;28;20225;-68
2023/01/23 11:26:35;;;;;;;78.20;14.50;;;;;;;;;;5074268;28;20211;-70
2023/01/23 11:29:03;;;;;;;73.40;13.15;;;;;;;;;;5073270;28;20204;-70
2023/01/23 11:31:31;;;;;;;69.13;12.27;;;;;;;;;;5074311;28;20200;-70
2023/01/23 11:34:04;;;;;;;69.85;12.05;;;;;;;;;;5073990;28;20231;-70
2023/01/23 11:36:36;;;;;;;76.00;14.43;;;;;;;;;;5074039;28;20227;-69
2023/01/23 11:39:06;;;;;;;74.35;14.00;;;;;;;;;;5072425;28;20455;-69
2023/01/23 11:41:34;;;;;;;74.75;13.85;;;;;;;;;;5073954;28;20581;-70
2023/01/23 11:44:03;;;;;;;70.80;12.75;;;;;;;;;;5074068;28;20225;-70
2023/01/23 11:46:36;;;;;;;73.00;14.35;;;;;;;;;;5074259;28;20212;-70
2023/01/23 11:49:22;;;;;;;72.93;13.63;;;;;;;;;;5073220;28;20209;-70
2023/01/23 11:51:53;;;;;;;71.93;14.13;;;;;;;;;;5073835;28;20201;-69
2023/01/23 11:54:32;;;;;;;75.55;14.52;;;;;;;;;;5073879;28;20221;-69
2023/01/23 11:57:03;;;;;;;76.57;15.63;;;;;;;;;;5073898;28;20604;-70
2023/01/23 11:59:37;;;;;;;76.15;15.10;;;;;;;;;;5073026;28;20677;-69
2023/01/23 12:02:17;;;;;;;77.15;16.08;;;;;;;;;;5073457;28;20225;-69
2023/01/23 12:04:59;;;;;;;97.28;28.77;;;;;;;;;;5073537;28;20201;-69
2023/01/23 12:07:26;;;;;;;72.57;14.15;;;;;;;;;;5073371;28;20695;-69
2023/01/23 12:10:06;;;;;;;73.05;14.32;;;;;;;;;;5072692;28;20208;-69
2023/01/23 12:12:41;;;;;;;76.90;14.90;;;;;;;;;;5073377;28;20225;-70
2023/01/23 12:15:12;;;;;;;104.63;34.05;;;;;;;;;;5073301;28;20469;-70
2023/01/23 12:17:41;;;;;;;76.57;15.50;;;;;;;;;;5073466;28;20213;-69
2023/01/23 12:20:26;;;;;;;78.03;16.67;;;;;;;;;;5072514;28;20209;-68
2023/01/23 12:23:02;;;;;;;73.32;14.90;;;;;;;;;;5073063;28;20240;-69
2023/01/23 12:25:32;;;;;;;74.07;14.48;;;;;;;;;;5073086;28;20227;-69
2023/01/23 12:28:03;;;;;;;72.55;13.20;;;;;;;;;;5073149;28;20201;-69
2023/01/23 12:30:38;;;;;;;71.85;14.15;;;;;;;;;;5072521;28;20209;-70
2023/01/23 12:33:15;;;;;;;73.40;14.05;;;;;;;;;;5072956;28;20225;-69
2023/01/23 12:35:48;;;;;;;75.15;13.43;;;;;;;;;;5072787;28;20208;-69
2023/01/23 12:38:24;;;;;;;69.17;12.77;;;;;;;;;;5072985;28;20213;-69
2023/01/23 12:40:53;;;;;;;71.10;12.70;;;;;;;;;;5072528;28;20470;-69
2023/01/23 12:43:22;;;;;;;73.87;13.87;;;;;;;;;;5072747;28;20494;-69
2023/01/23 12:45:53;;;;;;;69.07;12.17;;;;;;;;;;5072960;28;20454;-69
2023/01/23 12:48:27;;;;;;;74.87;15.07;;;;;;;;;;5072550;28;20440;-70
2023/01/23 12:50:58;;;;;;;71.57;12.67;;;;;;;;;;5072250;28;20551;-70
2023/01/23 12:53:25;;;;;;;71.30;12.53;;;;;;;;;;5072477;28;20956;-70
2023/01/23 12:55:58;;;;;;;71.17;14.10;;;;;;;;;;5072540;28;20454;-70
2023/01/23 12:58:26;;;;;;;72.70;13.80;;;;;;;;;;5072237;28;20443;-69
2023/01/23 13:00:59;;;;;;;71.20;11.87;;;;;;;;;;5071990;28;20443;-69
2023/01/23 13:03:45;;;;;;;70.07;12.60;;;;;;;;;;5072250;28;20487;-69
2023/01/23 13:06:22;;;;;;;70.73;12.13;;;;;;;;;;5072277;28;20501;-69
2023/01/23 13:08:54;;;;;;;69.60;12.97;;;;;;;;;;5071463;28;20451;-70
2023/01/23 13:11:40;;;;;;;67.57;11.67;;;;;;;;;;5072250;28;20455;-69
2023/01/23 13:14:16;;;;;;;71.70;12.73;;;;;;;;;;5072314;28;20482;-70
2023/01/23 13:16:46;;;;;;;69.97;12.67;;;;;;;;;;5072266;28;20448;-70
2023/01/23 13:22:13;;;;;;;73.00;13.63;;;;;;;;;;5071967;28;20923;-70
2023/01/23 13:27:39;;;;;;;76.27;12.87;;;;;;;;;;5072132;28;20423;-69
2023/01/23 13:30:37;;;;;;;69.70;11.90;;;;;;;;;;5071295;28;20443;-70
2023/01/23 13:33:19;;;;;;;72.17;12.67;;;;;;;;;;5071859;28;20983;-70
2023/01/23 13:35:54;;;;;;;69.07;10.90;;;;;;;;;;5072026;28;20447;-70
2023/01/23 13:38:36;;;;;;;66.67;11.23;;;;;;;;;;5071793;28;20537;-70
2023/01/23 13:41:21;;;;;;;67.03;11.60;;;;;;;;;;5071956;28;20556;-70
2023/01/23 13:43:52;;;;;;;69.70;12.00;;;;;;;;;;5071561;28;21014;-69
2023/01/23 13:46:26;;;;;;;69.80;11.30;;;;;;;;;;5071869;28;20876;-70
2023/01/23 13:51:39;;;;;;;70.43;12.30;;;;;;;;;;5071735;28;20423;-70
2023/01/23 13:56:58;;;;;;;68.50;12.00;;;;;;;;;;5071610;28;20882;-70
2023/01/23 13:59:28;;;;;;;68.80;12.07;;;;;;;;;;5070988;28;20455;-70
2023/01/23 14:07:43;;;;;;;69.53;11.50;;;;;;;;;;5071583;28;20419;-70
2023/01/23 14:10:22;;;;;;;65.43;10.43;;;;;;;;;;5070983;28;20870;-70
2023/01/23 14:12:49;;;;;;;69.40;12.20;;;;;;;;;;5071547;28;21070;-70
2023/01/23 14:18:05;;;;;;;69.07;11.40;;;;;;;;;;5071391;28;20504;-71
2023/01/23 14:20:38;;;;;;;67.30;10.30;;;;;;;;;;5071003;28;20440;-70
2023/01/23 14:23:05;;;;;;;69.37;10.07;;;;;;;;;;5071326;28;20483;-70
2023/01/23 14:25:34;;;;;;;69.90;11.70;;;;;;;;;;5071340;28;20471;-70
2023/01/23 14:28:05;;;;;;;68.87;12.57;;;;;;;;;;5071209;28;20837;-70
2023/01/23 14:30:32;;;;;;;69.90;9.97;;;;;;;;;;5070854;28;20447;-70
2023/01/23 14:32:59;;;;;;;70.23;11.77;;;;;;;;;;5071335;28;20490;-70
2023/01/23 14:35:27;;;;;;;72.40;13.20;;;;;;;;;;5071382;28;20448;-70
2023/01/23 14:37:56;;;;;;;71.50;12.07;;;;;;;;;;5071304;28;20451;-70
2023/01/23 14:40:23;;;;;;;70.65;12.20;;;;;;;;;;5070695;28;20210;-70
2023/01/23 14:42:56;;;;;;;70.20;12.18;;;;;;;;;;5070941;28;20233;-69
2023/01/23 14:45:23;;;;;;;69.70;12.73;;;;;;;;;;5071432;28;20205;-69
2023/01/23 14:47:50;;;;;;;79.10;18.33;;;;;;;;;;5071178;28;20205;-69
2023/01/23 14:50:19;;;;;;;73.10;14.45;;;;;;;;;;5070329;28;20213;-69
2023/01/23 14:52:46;;;;;;;69.82;12.25;;;;;;;;;;5070754;28;20225;-69
2023/01/23 14:55:21;;;;;;;72.10;13.48;;;;;;;;;;5071016;28;20205;-70
2023/01/23 14:57:50;;;;;;;72.15;13.18;;;;;;;;;;5071093;28;20205;-69